WZZ90 EPGD-ENGM
Flight info
| Callsign | WZZ90 |
|---|---|
| Flight time | 1h 13m |
| Altitude | 38000 |
| Route | VAPOS N133 PENOR DCT KSD Z259 ESEBA |
| Aircraft | A321/M-SDE1E2E3FGIJ1J4RWXY/LB1 |
Departure
| Time | 2026-05-07 11:26 |
|---|---|
| Airport | Gdańsk Lech Wałęsa Airport (EPGD) |
Arrival
| Time | 2026-05-07 12:39 |
|---|---|
| Airport | Oslo-Gardermoen International Airport (ENGM) |
| Time | Latitude | Longitude | Altitude | Speed | Heading |
|---|---|---|---|---|---|
| 2026-05-07 10:43 | 54.38145 | 18.46502 | 432 ft | 0 kts | 23° |
| 2026-05-07 11:16 | 54.38138 | 18.46498 | 459 ft | 4 kts | 26° |
| 2026-05-07 11:16 | 54.38118 | 18.46472 | 457 ft | 4 kts | 60° |
| 2026-05-07 11:17 | 54.38112 | 18.46432 | 459 ft | 3 kts | 109° |
| 2026-05-07 11:17 | 54.38114 | 18.46424 | 459 ft | 0 kts | 113° |
| 2026-05-07 11:20 | 54.38110 | 18.46438 | 459 ft | 4 kts | 113° |
| 2026-05-07 11:20 | 54.38095 | 18.46501 | 459 ft | 7 kts | 113° |
| 2026-05-07 11:20 | 54.38070 | 18.46596 | 459 ft | 10 kts | 124° |
| 2026-05-07 11:20 | 54.38001 | 18.46595 | 459 ft | 12 kts | 202° |
| 2026-05-07 11:21 | 54.37931 | 18.46636 | 459 ft | 13 kts | 108° |
| 2026-05-07 11:21 | 54.37897 | 18.46778 | 459 ft | 12 kts | 113° |
| 2026-05-07 11:21 | 54.37869 | 18.46894 | 459 ft | 9 kts | 113° |
| 2026-05-07 11:21 | 54.37840 | 18.47012 | 459 ft | 12 kts | 113° |
| 2026-05-07 11:22 | 54.37803 | 18.47158 | 459 ft | 14 kts | 113° |
| 2026-05-07 11:22 | 54.37761 | 18.47328 | 460 ft | 17 kts | 113° |
| 2026-05-07 11:22 | 54.37715 | 18.47512 | 460 ft | 17 kts | 113° |
| 2026-05-07 11:22 | 54.37670 | 18.47697 | 466 ft | 17 kts | 112° |
| 2026-05-07 11:23 | 54.37625 | 18.47879 | 469 ft | 17 kts | 112° |
| 2026-05-07 11:23 | 54.37581 | 18.48059 | 473 ft | 16 kts | 113° |
| 2026-05-07 11:23 | 54.37537 | 18.48233 | 476 ft | 15 kts | 113° |
| 2026-05-07 11:23 | 54.37498 | 18.48393 | 480 ft | 14 kts | 112° |
| 2026-05-07 11:24 | 54.37463 | 18.48534 | 487 ft | 12 kts | 113° |
| 2026-05-07 11:24 | 54.37430 | 18.48648 | 483 ft | 9 kts | 134° |
| 2026-05-07 11:24 | 54.37374 | 18.48643 | 491 ft | 9 kts | 208° |
| 2026-05-07 11:24 | 54.37312 | 18.48594 | 488 ft | 10 kts | 201° |
| 2026-05-07 11:25 | 54.37288 | 18.48517 | 489 ft | 4 kts | 291° |
| 2026-05-07 11:25 | 54.37334 | 18.48331 | 482 ft | 47 kts | 292° |
| 2026-05-07 11:25 | 54.37571 | 18.47374 | 464 ft | 124 kts | 293° |
| 2026-05-07 11:25 | 54.37972 | 18.45738 | 687 ft | 155 kts | 298° |
| 2026-05-07 11:26 | 54.38380 | 18.44077 | 1593 ft | 152 kts | 300° |
| 2026-05-07 11:26 | 54.38793 | 18.42411 | 2335 ft | 152 kts | 300° |
| 2026-05-07 11:26 | 54.39209 | 18.40731 | 3008 ft | 154 kts | 300° |
| 2026-05-07 11:26 | 54.39625 | 18.39035 | 3673 ft | 155 kts | 299° |
| 2026-05-07 11:27 | 54.40060 | 18.37234 | 4092 ft | 174 kts | 298° |
| 2026-05-07 11:27 | 54.40570 | 18.35212 | 4465 ft | 195 kts | 297° |
| 2026-05-07 11:27 | 54.41133 | 18.32952 | 4777 ft | 217 kts | 297° |
| 2026-05-07 11:27 | 54.41759 | 18.30413 | 5040 ft | 244 kts | 298° |
| 2026-05-07 11:28 | 54.42620 | 18.27789 | 5498 ft | 259 kts | 311° |
| 2026-05-07 11:28 | 54.43905 | 18.25531 | 6022 ft | 275 kts | 324° |
| 2026-05-07 11:28 | 54.45569 | 18.23670 | 6340 ft | 297 kts | 330° |
| 2026-05-07 11:28 | 54.47351 | 18.21719 | 6895 ft | 308 kts | 326° |
| 2026-05-07 11:29 | 54.49122 | 18.19578 | 7616 ft | 313 kts | 325° |
| 2026-05-07 11:29 | 54.50917 | 18.17417 | 8403 ft | 317 kts | 324° |
| 2026-05-07 11:29 | 54.52739 | 18.15210 | 9092 ft | 323 kts | 324° |
| 2026-05-07 11:29 | 54.54585 | 18.12963 | 9806 ft | 328 kts | 323° |
| 2026-05-07 11:30 | 54.56463 | 18.10699 | 10184 ft | 331 kts | 323° |
| 2026-05-07 11:30 | 54.58363 | 18.08407 | 10671 ft | 338 kts | 323° |
| 2026-05-07 11:30 | 54.60305 | 18.06055 | 11269 ft | 340 kts | 323° |
| 2026-05-07 11:30 | 54.62250 | 18.03727 | 12068 ft | 341 kts | 322° |
| 2026-05-07 11:31 | 54.64194 | 18.01363 | 12781 ft | 343 kts | 323° |
| 2026-05-07 11:31 | 54.66162 | 17.98979 | 13435 ft | 348 kts | 323° |
| 2026-05-07 11:31 | 54.68147 | 17.96565 | 14081 ft | 351 kts | 322° |
| 2026-05-07 11:31 | 54.70153 | 17.94126 | 14697 ft | 354 kts | 322° |
| 2026-05-07 11:32 | 54.74187 | 17.89216 | 15887 ft | 360 kts | 322° |
| 2026-05-07 11:32 | 54.76236 | 17.86697 | 16516 ft | 363 kts | 321° |
| 2026-05-07 11:32 | 54.78307 | 17.84150 | 17123 ft | 367 kts | 322° |
| 2026-05-07 11:33 | 54.80510 | 17.81864 | 17703 ft | 373 kts | 332° |
| 2026-05-07 11:33 | 54.82889 | 17.79990 | 18307 ft | 377 kts | 333° |
| 2026-05-07 11:33 | 54.85295 | 17.78122 | 18826 ft | 381 kts | 333° |
| 2026-05-07 11:33 | 54.87721 | 17.76217 | 19352 ft | 384 kts | 332° |
| 2026-05-07 11:34 | 54.90164 | 17.74298 | 19875 ft | 387 kts | 333° |
| 2026-05-07 11:34 | 54.92629 | 17.72352 | 20407 ft | 391 kts | 333° |
| 2026-05-07 11:34 | 54.95113 | 17.70397 | 20958 ft | 394 kts | 333° |
| 2026-05-07 11:34 | 54.97621 | 17.68419 | 21497 ft | 397 kts | 332° |
| 2026-05-07 11:35 | 55.00161 | 17.66479 | 22033 ft | 400 kts | 333° |
| 2026-05-07 11:35 | 55.02728 | 17.64536 | 22570 ft | 403 kts | 333° |
| 2026-05-07 11:35 | 55.05305 | 17.62567 | 23102 ft | 406 kts | 332° |
| 2026-05-07 11:35 | 55.07897 | 17.60579 | 23609 ft | 409 kts | 332° |
| 2026-05-07 11:36 | 55.10511 | 17.58587 | 24019 ft | 412 kts | 332° |
| 2026-05-07 11:36 | 55.13147 | 17.56573 | 24421 ft | 415 kts | 332° |
| 2026-05-07 11:36 | 55.15797 | 17.54525 | 24814 ft | 418 kts | 332° |
| 2026-05-07 11:36 | 55.18462 | 17.52464 | 25197 ft | 420 kts | 332° |
| 2026-05-07 11:37 | 55.21147 | 17.50393 | 25572 ft | 423 kts | 332° |
| 2026-05-07 11:37 | 55.23849 | 17.48273 | 25945 ft | 426 kts | 331° |
| 2026-05-07 11:37 | 55.26520 | 17.46136 | 26311 ft | 428 kts | 331° |
| 2026-05-07 11:37 | 55.29242 | 17.43972 | 26679 ft | 431 kts | 331° |
| 2026-05-07 11:38 | 55.31978 | 17.41791 | 27039 ft | 434 kts | 331° |
| 2026-05-07 11:38 | 55.34737 | 17.39584 | 27430 ft | 436 kts | 330° |
| 2026-05-07 11:38 | 55.37505 | 17.37383 | 27815 ft | 438 kts | 330° |
| 2026-05-07 11:38 | 55.40295 | 17.35156 | 28172 ft | 440 kts | 330° |
| 2026-05-07 11:39 | 55.43091 | 17.32915 | 28516 ft | 443 kts | 330° |
| 2026-05-07 11:39 | 55.45901 | 17.30647 | 28842 ft | 446 kts | 330° |
| 2026-05-07 11:39 | 55.48728 | 17.28377 | 29159 ft | 448 kts | 330° |
| 2026-05-07 11:39 | 55.51571 | 17.26080 | 29469 ft | 450 kts | 330° |
| 2026-05-07 11:40 | 55.54425 | 17.23772 | 29763 ft | 453 kts | 330° |
| 2026-05-07 11:40 | 55.57302 | 17.21456 | 30053 ft | 455 kts | 330° |
| 2026-05-07 11:40 | 55.60191 | 17.19128 | 30312 ft | 457 kts | 330° |
| 2026-05-07 11:40 | 55.63092 | 17.16773 | 30562 ft | 459 kts | 330° |
| 2026-05-07 11:41 | 55.65953 | 17.14296 | 30874 ft | 458 kts | 327° |
| 2026-05-07 11:41 | 55.68793 | 17.11729 | 31158 ft | 458 kts | 327° |
| 2026-05-07 11:41 | 55.71639 | 17.09165 | 31432 ft | 459 kts | 328° |
| 2026-05-07 11:41 | 55.74487 | 17.06625 | 31787 ft | 458 kts | 328° |
| 2026-05-07 11:42 | 55.77319 | 17.04068 | 32162 ft | 456 kts | 328° |
| 2026-05-07 11:42 | 55.80138 | 17.01516 | 32510 ft | 454 kts | 328° |
| 2026-05-07 11:42 | 55.82958 | 16.98972 | 32831 ft | 454 kts | 328° |
| 2026-05-07 11:42 | 55.85774 | 16.96442 | 33153 ft | 453 kts | 328° |
| 2026-05-07 11:43 | 55.88584 | 16.93891 | 33451 ft | 453 kts | 328° |
| 2026-05-07 11:43 | 55.91389 | 16.91342 | 33756 ft | 452 kts | 328° |
| 2026-05-07 11:43 | 55.94190 | 16.88797 | 34058 ft | 452 kts | 328° |
| 2026-05-07 11:43 | 55.96712 | 16.86507 | 34316 ft | 451 kts | 328° |
| 2026-05-07 11:44 | 55.99210 | 16.84219 | 34563 ft | 450 kts | 328° |
| 2026-05-07 11:44 | 56.02031 | 16.81637 | 34799 ft | 449 kts | 328° |
| 2026-05-07 11:44 | 56.04812 | 16.79079 | 35016 ft | 450 kts | 328° |
| 2026-05-07 11:44 | 56.07557 | 16.76556 | 35219 ft | 450 kts | 328° |
| 2026-05-07 11:45 | 56.10348 | 16.74015 | 35420 ft | 450 kts | 328° |
| 2026-05-07 11:45 | 56.12904 | 16.71683 | 35605 ft | 450 kts | 328° |
| 2026-05-07 11:45 | 56.15689 | 16.69106 | 35809 ft | 450 kts | 328° |
| 2026-05-07 11:45 | 56.18466 | 16.66530 | 36007 ft | 451 kts | 328° |
| 2026-05-07 11:46 | 56.21261 | 16.63946 | 36195 ft | 451 kts | 328° |
| 2026-05-07 11:46 | 56.24052 | 16.61354 | 36383 ft | 451 kts | 328° |
| 2026-05-07 11:46 | 56.26841 | 16.58766 | 36572 ft | 452 kts | 328° |
| 2026-05-07 11:46 | 56.29637 | 16.56183 | 36781 ft | 451 kts | 328° |
| 2026-05-07 11:47 | 56.32427 | 16.53591 | 36959 ft | 451 kts | 328° |
| 2026-05-07 11:47 | 56.35213 | 16.50987 | 37131 ft | 451 kts | 328° |
| 2026-05-07 11:47 | 56.38000 | 16.48388 | 37290 ft | 451 kts | 328° |
| 2026-05-07 11:47 | 56.40792 | 16.45782 | 37452 ft | 451 kts | 328° |
| 2026-05-07 11:48 | 56.43581 | 16.43171 | 37589 ft | 452 kts | 328° |
| 2026-05-07 11:48 | 56.46373 | 16.40559 | 37734 ft | 452 kts | 328° |
| 2026-05-07 11:48 | 56.49167 | 16.37943 | 37875 ft | 452 kts | 328° |
| 2026-05-07 11:48 | 56.51957 | 16.35313 | 38019 ft | 452 kts | 328° |
| 2026-05-07 11:49 | 56.54750 | 16.32683 | 38059 ft | 453 kts | 328° |
| 2026-05-07 11:49 | 56.60335 | 16.27401 | 38088 ft | 452 kts | 328° |
| 2026-05-07 11:50 | 56.65903 | 16.22116 | 38083 ft | 451 kts | 328° |
| 2026-05-07 11:50 | 56.71471 | 16.16826 | 38083 ft | 451 kts | 328° |
| 2026-05-07 11:51 | 56.76795 | 16.11715 | 38083 ft | 451 kts | 328° |
| 2026-05-07 11:51 | 56.82362 | 16.06403 | 38080 ft | 452 kts | 328° |
| 2026-05-07 11:52 | 56.87928 | 16.01054 | 38105 ft | 452 kts | 328° |
| 2026-05-07 11:52 | 56.93522 | 15.95674 | 38091 ft | 450 kts | 328° |
| 2026-05-07 11:53 | 56.99009 | 15.90378 | 38077 ft | 448 kts | 328° |
| 2026-05-07 11:53 | 57.04520 | 15.85023 | 38077 ft | 448 kts | 327° |
| 2026-05-07 11:54 | 57.09623 | 15.80041 | 38071 ft | 448 kts | 328° |
| 2026-05-07 11:54 | 57.15124 | 15.74642 | 38068 ft | 448 kts | 327° |
| 2026-05-07 11:55 | 57.20635 | 15.69267 | 38069 ft | 448 kts | 328° |
| 2026-05-07 11:55 | 57.26137 | 15.63847 | 38103 ft | 448 kts | 328° |
| 2026-05-07 11:56 | 57.31617 | 15.58453 | 38056 ft | 445 kts | 328° |
| 2026-05-07 11:56 | 57.37082 | 15.53011 | 38061 ft | 445 kts | 327° |
| 2026-05-07 11:57 | 57.42552 | 15.47600 | 38062 ft | 445 kts | 328° |
| 2026-05-07 11:57 | 57.47975 | 15.42187 | 38074 ft | 445 kts | 327° |
| 2026-05-07 11:58 | 57.53433 | 15.36723 | 38068 ft | 445 kts | 327° |
| 2026-05-07 11:58 | 57.58893 | 15.31240 | 38076 ft | 445 kts | 327° |
| 2026-05-07 11:59 | 57.64344 | 15.25762 | 38073 ft | 445 kts | 327° |
| 2026-05-07 11:59 | 57.69791 | 15.20246 | 38084 ft | 444 kts | 327° |
| 2026-05-07 12:00 | 57.75219 | 15.14742 | 38081 ft | 443 kts | 327° |
| 2026-05-07 12:00 | 57.80626 | 15.09231 | 38080 ft | 442 kts | 327° |
| 2026-05-07 12:01 | 57.86032 | 15.03715 | 38076 ft | 442 kts | 327° |
| 2026-05-07 12:01 | 57.91424 | 14.98188 | 38080 ft | 441 kts | 327° |
| 2026-05-07 12:02 | 57.96807 | 14.92666 | 38083 ft | 441 kts | 327° |
| 2026-05-07 12:02 | 58.02183 | 14.87124 | 38080 ft | 440 kts | 327° |
| 2026-05-07 12:03 | 58.07509 | 14.81603 | 38097 ft | 439 kts | 327° |
| 2026-05-07 12:03 | 58.12890 | 14.76000 | 38093 ft | 438 kts | 327° |
| 2026-05-07 12:04 | 58.18223 | 14.70431 | 38110 ft | 437 kts | 327° |
| 2026-05-07 12:04 | 58.23500 | 14.64917 | 38079 ft | 435 kts | 327° |
| 2026-05-07 12:05 | 58.28790 | 14.59367 | 38075 ft | 434 kts | 327° |
| 2026-05-07 12:05 | 58.33216 | 14.54698 | 38078 ft | 434 kts | 327° |
| 2026-05-07 12:06 | 58.38506 | 14.49126 | 38093 ft | 434 kts | 326° |
| 2026-05-07 12:06 | 58.43786 | 14.43511 | 38104 ft | 435 kts | 327° |
| 2026-05-07 12:07 | 58.49067 | 14.37904 | 38105 ft | 434 kts | 327° |
| 2026-05-07 12:07 | 58.54340 | 14.32272 | 38096 ft | 433 kts | 326° |
| 2026-05-07 12:08 | 58.59581 | 14.26657 | 38091 ft | 432 kts | 326° |
| 2026-05-07 12:08 | 58.64819 | 14.21014 | 38090 ft | 432 kts | 326° |
| 2026-05-07 12:09 | 58.70058 | 14.15353 | 38093 ft | 432 kts | 326° |
| 2026-05-07 12:09 | 58.75298 | 14.09693 | 38097 ft | 432 kts | 326° |
| 2026-05-07 12:10 | 58.80537 | 14.04008 | 38100 ft | 432 kts | 326° |
| 2026-05-07 12:10 | 58.85732 | 13.98318 | 38124 ft | 432 kts | 326° |
| 2026-05-07 12:11 | 58.90965 | 13.92610 | 38105 ft | 431 kts | 326° |
| 2026-05-07 12:11 | 58.96191 | 13.86875 | 38101 ft | 432 kts | 326° |
| 2026-05-07 12:12 | 59.01417 | 13.81133 | 37935 ft | 431 kts | 326° |
| 2026-05-07 12:12 | 59.04016 | 13.78264 | 37662 ft | 429 kts | 325° |
| 2026-05-07 12:12 | 59.06604 | 13.75395 | 37393 ft | 427 kts | 325° |
| 2026-05-07 12:12 | 59.09179 | 13.72538 | 37029 ft | 425 kts | 325° |
| 2026-05-07 12:13 | 59.11751 | 13.69680 | 36289 ft | 426 kts | 325° |
| 2026-05-07 12:13 | 59.14317 | 13.66829 | 35655 ft | 424 kts | 325° |
| 2026-05-07 12:13 | 59.16861 | 13.64000 | 35157 ft | 419 kts | 325° |
| 2026-05-07 12:13 | 59.19380 | 13.61198 | 34668 ft | 415 kts | 324° |
| 2026-05-07 12:14 | 59.21868 | 13.58401 | 34162 ft | 410 kts | 324° |
| 2026-05-07 12:14 | 59.24326 | 13.55644 | 33612 ft | 405 kts | 324° |
| 2026-05-07 12:14 | 59.26745 | 13.52928 | 33151 ft | 397 kts | 324° |
| 2026-05-07 12:14 | 59.29115 | 13.50253 | 32682 ft | 390 kts | 324° |
| 2026-05-07 12:15 | 59.31451 | 13.47642 | 32224 ft | 384 kts | 324° |
| 2026-05-07 12:15 | 59.33751 | 13.45062 | 31767 ft | 378 kts | 324° |
| 2026-05-07 12:15 | 59.36006 | 13.42503 | 31327 ft | 371 kts | 324° |
| 2026-05-07 12:15 | 59.38224 | 13.39991 | 30890 ft | 366 kts | 324° |
| 2026-05-07 12:16 | 59.40416 | 13.37513 | 30452 ft | 361 kts | 324° |
| 2026-05-07 12:16 | 59.42571 | 13.35067 | 30000 ft | 356 kts | 324° |
| 2026-05-07 12:16 | 59.44700 | 13.32646 | 29556 ft | 351 kts | 324° |
| 2026-05-07 12:16 | 59.46809 | 13.30305 | 29153 ft | 345 kts | 325° |
| 2026-05-07 12:17 | 59.48890 | 13.28010 | 28737 ft | 341 kts | 324° |
| 2026-05-07 12:17 | 59.50941 | 13.25736 | 28372 ft | 337 kts | 324° |
| 2026-05-07 12:17 | 59.52978 | 13.23470 | 27928 ft | 334 kts | 324° |
| 2026-05-07 12:17 | 59.54991 | 13.21227 | 27528 ft | 330 kts | 324° |
| 2026-05-07 12:18 | 59.56976 | 13.19007 | 27133 ft | 326 kts | 324° |
| 2026-05-07 12:18 | 59.58940 | 13.16810 | 26739 ft | 322 kts | 324° |
| 2026-05-07 12:18 | 59.60878 | 13.14641 | 26348 ft | 318 kts | 323° |
| 2026-05-07 12:18 | 59.62793 | 13.12495 | 25966 ft | 315 kts | 323° |
| 2026-05-07 12:19 | 59.64692 | 13.10366 | 25574 ft | 313 kts | 323° |
| 2026-05-07 12:19 | 59.66584 | 13.08241 | 25190 ft | 312 kts | 323° |
| 2026-05-07 12:19 | 59.68467 | 13.06121 | 24806 ft | 311 kts | 323° |
| 2026-05-07 12:19 | 59.70342 | 13.04000 | 24434 ft | 310 kts | 323° |
| 2026-05-07 12:20 | 59.72212 | 13.01895 | 24043 ft | 309 kts | 323° |
| 2026-05-07 12:20 | 59.74079 | 12.99794 | 23668 ft | 308 kts | 323° |
| 2026-05-07 12:20 | 59.75934 | 12.97683 | 23227 ft | 307 kts | 323° |
| 2026-05-07 12:20 | 59.77782 | 12.95585 | 22851 ft | 306 kts | 323° |
| 2026-05-07 12:21 | 59.79656 | 12.93451 | 22538 ft | 319 kts | 323° |
| 2026-05-07 12:21 | 59.81614 | 12.91219 | 22257 ft | 327 kts | 324° |
| 2026-05-07 12:21 | 59.83596 | 12.88961 | 22027 ft | 328 kts | 324° |
| 2026-05-07 12:21 | 59.85575 | 12.86714 | 21760 ft | 327 kts | 324° |
| 2026-05-07 12:22 | 59.87544 | 12.84472 | 21485 ft | 326 kts | 324° |
| 2026-05-07 12:22 | 59.89507 | 12.82231 | 21222 ft | 325 kts | 324° |
| 2026-05-07 12:22 | 59.91466 | 12.79994 | 20955 ft | 324 kts | 324° |
| 2026-05-07 12:22 | 59.93424 | 12.77760 | 20701 ft | 324 kts | 324° |
| 2026-05-07 12:23 | 59.95372 | 12.75511 | 20438 ft | 323 kts | 322° |
| 2026-05-07 12:23 | 59.97276 | 12.73161 | 20175 ft | 320 kts | 320° |
| 2026-05-07 12:23 | 59.98945 | 12.70337 | 19680 ft | 311 kts | 308° |
| 2026-05-07 12:23 | 60.00225 | 12.66903 | 19142 ft | 307 kts | 300° |
| 2026-05-07 12:24 | 60.01411 | 12.63365 | 18665 ft | 306 kts | 301° |
| 2026-05-07 12:24 | 60.02603 | 12.59820 | 18290 ft | 308 kts | 301° |
| 2026-05-07 12:24 | 60.03803 | 12.56271 | 17875 ft | 307 kts | 301° |
| 2026-05-07 12:24 | 60.05000 | 12.52740 | 17463 ft | 306 kts | 301° |
| 2026-05-07 12:25 | 60.06189 | 12.49223 | 17065 ft | 304 kts | 301° |
| 2026-05-07 12:25 | 60.07368 | 12.45725 | 16645 ft | 302 kts | 301° |
| 2026-05-07 12:25 | 60.08547 | 12.42246 | 16234 ft | 301 kts | 301° |
| 2026-05-07 12:25 | 60.09711 | 12.38779 | 15826 ft | 299 kts | 301° |
| 2026-05-07 12:26 | 60.10871 | 12.35339 | 15435 ft | 298 kts | 302° |
| 2026-05-07 12:26 | 60.12025 | 12.31904 | 15058 ft | 296 kts | 302° |
| 2026-05-07 12:26 | 60.13169 | 12.28484 | 14676 ft | 295 kts | 302° |
| 2026-05-07 12:26 | 60.14303 | 12.25072 | 14303 ft | 293 kts | 302° |
| 2026-05-07 12:27 | 60.15441 | 12.21681 | 13930 ft | 292 kts | 302° |
| 2026-05-07 12:27 | 60.16567 | 12.18307 | 13527 ft | 291 kts | 302° |
| 2026-05-07 12:27 | 60.17680 | 12.14990 | 13108 ft | 289 kts | 302° |
| 2026-05-07 12:27 | 60.18812 | 12.11596 | 12580 ft | 288 kts | 302° |
| 2026-05-07 12:28 | 60.19902 | 12.08287 | 12076 ft | 287 kts | 302° |
| 2026-05-07 12:28 | 60.21007 | 12.04941 | 11625 ft | 287 kts | 302° |
| 2026-05-07 12:28 | 60.22115 | 12.01596 | 11242 ft | 288 kts | 302° |
| 2026-05-07 12:28 | 60.23224 | 11.98237 | 10813 ft | 288 kts | 303° |
| 2026-05-07 12:29 | 60.24332 | 11.94889 | 10379 ft | 286 kts | 303° |
| 2026-05-07 12:29 | 60.25418 | 11.91581 | 10017 ft | 282 kts | 303° |
| 2026-05-07 12:29 | 60.26495 | 11.88315 | 9689 ft | 277 kts | 303° |
| 2026-05-07 12:29 | 60.27555 | 11.85108 | 9295 ft | 274 kts | 303° |
| 2026-05-07 12:30 | 60.28603 | 11.81916 | 8887 ft | 272 kts | 303° |
| 2026-05-07 12:30 | 60.29641 | 11.78743 | 8481 ft | 271 kts | 302° |
| 2026-05-07 12:30 | 60.30672 | 11.75577 | 8061 ft | 270 kts | 303° |
| 2026-05-07 12:30 | 60.31704 | 11.72428 | 7682 ft | 268 kts | 303° |
| 2026-05-07 12:31 | 60.32724 | 11.69297 | 7308 ft | 266 kts | 303° |
| 2026-05-07 12:31 | 60.33740 | 11.66195 | 6917 ft | 265 kts | 303° |
| 2026-05-07 12:31 | 60.34752 | 11.63096 | 6528 ft | 263 kts | 302° |
| 2026-05-07 12:31 | 60.35753 | 11.60009 | 6124 ft | 262 kts | 303° |
| 2026-05-07 12:32 | 60.36751 | 11.56940 | 5856 ft | 261 kts | 302° |
| 2026-05-07 12:32 | 60.37742 | 11.53864 | 5675 ft | 262 kts | 302° |
| 2026-05-07 12:32 | 60.38735 | 11.50791 | 5485 ft | 261 kts | 302° |
| 2026-05-07 12:32 | 60.39726 | 11.47730 | 5346 ft | 260 kts | 302° |
| 2026-05-07 12:33 | 60.41544 | 11.41451 | 5088 ft | 256 kts | 286° |
| 2026-05-07 12:33 | 60.41765 | 11.37977 | 5004 ft | 246 kts | 266° |
| 2026-05-07 12:33 | 60.41455 | 11.34612 | 4728 ft | 241 kts | 256° |
| 2026-05-07 12:34 | 60.41039 | 11.31354 | 4488 ft | 236 kts | 256° |
| 2026-05-07 12:34 | 60.40590 | 11.28229 | 4337 ft | 228 kts | 246° |
| 2026-05-07 12:34 | 60.39757 | 11.25597 | 4211 ft | 220 kts | 228° |
| 2026-05-07 12:34 | 60.38592 | 11.23616 | 4086 ft | 217 kts | 212° |
| 2026-05-07 12:35 | 60.37277 | 11.22315 | 3973 ft | 203 kts | 201° |
| 2026-05-07 12:35 | 60.35987 | 11.21481 | 3886 ft | 187 kts | 197° |
| 2026-05-07 12:35 | 60.34786 | 11.20777 | 3725 ft | 174 kts | 197° |
| 2026-05-07 12:35 | 60.33647 | 11.20113 | 3519 ft | 169 kts | 197° |
| 2026-05-07 12:36 | 60.32527 | 11.19460 | 3300 ft | 168 kts | 197° |
| 2026-05-07 12:36 | 60.31405 | 11.18802 | 3075 ft | 168 kts | 198° |
| 2026-05-07 12:36 | 60.30293 | 11.18156 | 2844 ft | 165 kts | 198° |
| 2026-05-07 12:36 | 60.29207 | 11.17531 | 2611 ft | 160 kts | 199° |
| 2026-05-07 12:37 | 60.28148 | 11.16908 | 2401 ft | 156 kts | 198° |
| 2026-05-07 12:37 | 60.27133 | 11.16319 | 2216 ft | 147 kts | 197° |
| 2026-05-07 12:37 | 60.26167 | 11.15757 | 1988 ft | 143 kts | 197° |
| 2026-05-07 12:37 | 60.25222 | 11.15208 | 1789 ft | 141 kts | 197° |
| 2026-05-07 12:38 | 60.24284 | 11.14663 | 1600 ft | 140 kts | 197° |
| 2026-05-07 12:38 | 60.23345 | 11.14118 | 1393 ft | 141 kts | 197° |
| 2026-05-07 12:38 | 60.22403 | 11.13573 | 1201 ft | 141 kts | 197° |
| 2026-05-07 12:38 | 60.21457 | 11.13033 | 1004 ft | 142 kts | 196° |
| 2026-05-07 12:39 | 60.20510 | 11.12480 | 817 ft | 142 kts | 196° |
| 2026-05-07 12:39 | 60.19575 | 11.11934 | 686 ft | 129 kts | 197° |
| 2026-05-07 12:39 | 60.18841 | 11.11510 | 684 ft | 86 kts | 196° |
| 2026-05-07 12:39 | 60.18504 | 11.11265 | 683 ft | 30 kts | 217° |
| 2026-05-07 12:40 | 60.18441 | 11.11120 | 683 ft | 14 kts | 252° |
| 2026-05-07 12:40 | 60.18448 | 11.10960 | 680 ft | 3 kts | 285° |
| 2026-05-07 12:40 | 60.18455 | 11.10909 | 681 ft | 5 kts | 285° |
| 2026-05-07 12:40 | 60.18469 | 11.10816 | 680 ft | 10 kts | 287° |
| 2026-05-07 12:41 | 60.18512 | 11.10755 | 682 ft | 8 kts | 6° |
| 2026-05-07 12:41 | 60.18576 | 11.10792 | 682 ft | 11 kts | 16° |
| 2026-05-07 12:41 | 60.18659 | 11.10841 | 682 ft | 14 kts | 16° |
| 2026-05-07 12:41 | 60.18744 | 11.10891 | 683 ft | 6 kts | 16° |
| 2026-05-07 12:42 | 60.18792 | 11.10919 | 683 ft | 9 kts | 16° |
| 2026-05-07 12:42 | 60.18864 | 11.10959 | 683 ft | 12 kts | 15° |
| 2026-05-07 12:42 | 60.18950 | 11.11008 | 683 ft | 14 kts | 15° |
| 2026-05-07 12:42 | 60.19018 | 11.11048 | 683 ft | 10 kts | 17° |
| 2026-05-07 12:43 | 60.19091 | 11.11091 | 680 ft | 12 kts | 16° |
| 2026-05-07 12:43 | 60.19179 | 11.11141 | 685 ft | 14 kts | 16° |
| 2026-05-07 12:43 | 60.19282 | 11.11200 | 684 ft | 17 kts | 15° |
| 2026-05-07 12:43 | 60.19391 | 11.11264 | 684 ft | 18 kts | 16° |
| 2026-05-07 12:44 | 60.19482 | 11.11281 | 680 ft | 9 kts | 315° |
| 2026-05-07 12:44 | 60.19505 | 11.11155 | 681 ft | 8 kts | 285° |
| 2026-05-07 12:44 | 60.19520 | 11.11047 | 682 ft | 9 kts | 286° |
| 2026-05-07 12:44 | 60.19537 | 11.10927 | 681 ft | 8 kts | 286° |
| 2026-05-07 12:45 | 60.19556 | 11.10794 | 683 ft | 10 kts | 286° |
| 2026-05-07 12:45 | 60.19575 | 11.10663 | 683 ft | 9 kts | 287° |
| 2026-05-07 12:45 | 60.19592 | 11.10543 | 683 ft | 9 kts | 286° |
| 2026-05-07 12:45 | 60.19612 | 11.10447 | 681 ft | 6 kts | 312° |
| 2026-05-07 12:46 | 60.19635 | 11.10435 | 684 ft | 2 kts | 1° |
| 2026-05-07 12:46 | 60.19668 | 11.10447 | 684 ft | 7 kts | 13° |
| 2026-05-07 12:46 | 60.19695 | 11.10406 | 685 ft | 3 kts | 285° |
| 2026-05-07 12:46 | 60.19702 | 11.10361 | 685 ft | 4 kts | 286° |
| 2026-05-07 12:47 | 60.19711 | 11.10301 | 681 ft | 4 kts | 286° |
| 2026-05-07 12:47 | 60.19715 | 11.10272 | 681 ft | 1 kts | 286° |
| 2026-05-07 12:47 | 60.19716 | 11.10264 | 682 ft | 0 kts | 286° |
| 2026-05-07 12:47 | 60.19717 | 11.10253 | 685 ft | 1 kts | 286° |
| 2026-05-07 12:48 | 60.19718 | 11.10250 | 685 ft | 0 kts | 286° |